createdAt,value
2022-12-31T00:01:36.436Z,99937.56
2022-12-31T00:04:03.180Z,99970.09
2022-12-31T00:06:33.649Z,99972.09
2022-12-31T00:09:04.066Z,99972.91
2022-12-31T00:11:31.708Z,99976.34
2022-12-31T00:14:01.909Z,99958.38
2022-12-31T00:16:36.577Z,99975.75
2022-12-31T00:19:05.157Z,99988.66
2022-12-31T00:21:33.365Z,99966.66
2022-12-31T00:24:00.853Z,99968.06
2022-12-31T00:26:30.735Z,99976.75
2022-12-31T00:28:58.830Z,99968.06
2022-12-31T00:31:43.551Z,99961.22
2022-12-31T00:34:10.221Z,99954.13
2022-12-31T00:36:39.273Z,99934.94
2022-12-31T00:39:08.508Z,99961.41
2022-12-31T00:41:35.971Z,99962.63
2022-12-31T00:44:02.817Z,99940.81
2022-12-31T00:46:29.662Z,99959.22
2022-12-31T00:48:56.486Z,99940.22
2022-12-31T00:51:27.475Z,99952.16
2022-12-31T00:53:55.365Z,99949.94
2022-12-31T00:56:27.130Z,99946.91
2022-12-31T00:58:54.812Z,99948.94
2022-12-31T01:01:24.606Z,99948.31
2022-12-31T01:03:54.659Z,99926.09
2022-12-31T01:06:22.097Z,99939.47
2022-12-31T01:08:50.197Z,99913.59
2022-12-31T01:11:20.557Z,99940.06
2022-12-31T01:13:55.805Z,99939.03
2022-12-31T01:16:25.863Z,99952.38
2022-12-31T01:18:53.338Z,99958.63
2022-12-31T01:21:21.135Z,99937.63
2022-12-31T01:23:48.113Z,99921.25
2022-12-31T01:26:16.801Z,99923.69
2022-12-31T01:28:43.774Z,99951.56
2022-12-31T01:31:14.605Z,99954.78
2022-12-31T01:33:42.206Z,99933.97
2022-12-31T01:36:23.570Z,99955.22
2022-12-31T01:38:52.554Z,99933.38
2022-12-31T01:41:22.086Z,99945.31
2022-12-31T01:43:50.240Z,99962.66
2022-12-31T01:46:36.903Z,99948.72
2022-12-31T01:49:13.549Z,99946.50
2022-12-31T01:51:43.794Z,99940.63
2022-12-31T01:54:15.648Z,99944.50
2022-12-31T01:56:44.768Z,99934.22
2022-12-31T01:59:15.398Z,99948.94
2022-12-31T02:01:42.334Z,99918.84
2022-12-31T02:04:12.281Z,99930.97
2022-12-31T02:06:44.550Z,99908.75
2022-12-31T02:09:12.309Z,99932.16
2022-12-31T02:11:38.963Z,99932.19
2022-12-31T02:14:15.139Z,99935.00
2022-12-31T02:16:55.708Z,99906.50
2022-12-31T02:19:40.754Z,99938.03
2022-12-31T02:22:43.447Z,99919.63
2022-12-31T02:25:12.877Z,99922.88
2022-12-31T02:27:42.228Z,99915.41
2022-12-31T02:30:17.056Z,99920.47
2022-12-31T02:33:03.917Z,99920.66
2022-12-31T02:35:43.493Z,99917.84
2022-12-31T02:38:17.331Z,99922.88
2022-12-31T02:40:44.901Z,99946.50
2022-12-31T02:43:11.665Z,99968.56
2022-12-31T02:45:41.811Z,99956.25
2022-12-31T02:48:23.729Z,99958.22
2022-12-31T02:51:12.936Z,99950.50
2022-12-31T02:54:02.367Z,99943.00
2022-12-31T02:56:57.667Z,99937.31
2022-12-31T02:59:49.306Z,99958.28
2022-12-31T03:02:19.787Z,99942.09
2022-12-31T03:04:56.935Z,99958.25
2022-12-31T03:07:26.945Z,99961.88
2022-12-31T03:09:54.360Z,99953.75
2022-12-31T03:12:42.697Z,99967.88
2022-12-31T03:15:19.971Z,99967.00
2022-12-31T03:18:09.507Z,99991.88
2022-12-31T03:21:02.913Z,100019.91
2022-12-31T03:23:42.209Z,100007.38
2022-12-31T03:26:12.123Z,100017.88
2022-12-31T03:28:41.285Z,100011.19
2022-12-31T03:31:08.809Z,99979.91
2022-12-31T03:33:39.628Z,99936.13
2022-12-31T03:36:11.492Z,99926.63
2022-12-31T03:38:38.530Z,99890.69
2022-12-31T03:41:05.612Z,99897.97
2022-12-31T03:43:32.669Z,99893.88
2022-12-31T03:46:01.654Z,99907.78
2022-12-31T03:48:28.866Z,99928.31
2022-12-31T03:50:55.740Z,99903.00
2022-12-31T03:53:22.386Z,99899.97
2022-12-31T03:55:52.925Z,99940.81
2022-12-31T03:58:19.616Z,99944.00
2022-12-31T04:00:46.262Z,99961.53
2022-12-31T04:03:12.952Z,99968.41
2022-12-31T04:05:40.863Z,99966.56
2022-12-31T04:08:07.855Z,99938.47
2022-12-31T04:10:34.865Z,99976.09
2022-12-31T04:13:05.876Z,99934.41
2022-12-31T04:15:32.695Z,99919.84
2022-12-31T04:17:59.698Z,99925.31
2022-12-31T04:20:26.554Z,99951.47
2022-12-31T04:22:53.206Z,99941.81
2022-12-31T04:25:20.036Z,99926.41
2022-12-31T04:27:46.697Z,99939.91
2022-12-31T04:30:14.267Z,99965.75
2022-12-31T04:32:41.850Z,99966.56
2022-12-31T04:35:09.701Z,99970.63
2022-12-31T04:37:36.456Z,99935.88
2022-12-31T04:40:06.515Z,99970.44
2022-12-31T04:42:34.554Z,99970.66
2022-12-31T04:45:01.217Z,99964.97
2022-12-31T04:47:28.115Z,99961.34
2022-12-31T04:49:54.789Z,99972.66
2022-12-31T04:52:21.753Z,99969.22
2022-12-31T04:54:48.473Z,99968.41
2022-12-31T04:57:15.153Z,99971.84
2022-12-31T04:59:41.947Z,99988.22
2022-12-31T05:02:08.864Z,99998.31
2022-12-31T05:04:35.686Z,99973.06
2022-12-31T05:07:02.590Z,99978.00
2022-12-31T05:09:29.813Z,99954.13
2022-12-31T05:11:56.597Z,99967.25
2022-12-31T05:14:23.471Z,99970.28
2022-12-31T05:16:50.658Z,99932.28
2022-12-31T05:19:17.615Z,99958.94
2022-12-31T05:21:44.623Z,99955.94
2022-12-31T05:24:11.250Z,99968.66
2022-12-31T05:26:38.140Z,99962.38
2022-12-31T05:29:04.858Z,99968.03
2022-12-31T05:31:31.477Z,99994.50
2022-12-31T05:34:00.056Z,99953.25
2022-12-31T05:36:42.802Z,99959.50
2022-12-31T05:39:17.037Z,99987.03
2022-12-31T05:41:54.049Z,99934.06
2022-12-31T05:44:29.422Z,99970.88
2022-12-31T05:46:58.948Z,99911.97
2022-12-31T05:49:25.624Z,99952.22
2022-12-31T05:51:52.911Z,99978.50
2022-12-31T05:54:26.044Z,99945.16
2022-12-31T05:56:52.732Z,99963.16
2022-12-31T05:59:19.426Z,99978.56
2022-12-31T06:01:46.200Z,99985.41
2022-12-31T06:04:12.895Z,99974.44
2022-12-31T06:06:39.525Z,99994.69
2022-12-31T06:09:06.274Z,99989.84
2022-12-31T06:11:32.901Z,99980.31
2022-12-31T06:13:59.657Z,99973.03
2022-12-31T06:16:26.942Z,100000.50
2022-12-31T06:18:53.831Z,99999.69
2022-12-31T06:21:21.839Z,100014.59
2022-12-31T06:23:48.850Z,100009.16
2022-12-31T06:26:16.093Z,100012.84
2022-12-31T06:28:42.881Z,100005.38
2022-12-31T06:31:12.377Z,100026.56
2022-12-31T06:33:39.501Z,100004.69
2022-12-31T06:36:08.276Z,100029.31
2022-12-31T06:38:39.182Z,100033.19
2022-12-31T06:41:06.919Z,100038.63
2022-12-31T06:43:35.462Z,100045.22
2022-12-31T06:46:03.139Z,100048.16
2022-12-31T06:48:30.286Z,100043.66
2022-12-31T06:50:56.976Z,100036.59
2022-12-31T06:53:23.676Z,100038.25
2022-12-31T06:55:50.769Z,99996.63
2022-12-31T06:58:17.729Z,99999.03
2022-12-31T07:01:05.338Z,100026.91
2022-12-31T07:03:41.072Z,100022.44
2022-12-31T07:06:07.731Z,100035.75
2022-12-31T07:08:40.245Z,100039.00
2022-12-31T07:11:10.888Z,100032.75
2022-12-31T07:13:55.611Z,100027.13
2022-12-31T07:16:53.219Z,100043.84
2022-12-31T07:19:41.529Z,100044.28
2022-12-31T07:22:15.005Z,100046.72
2022-12-31T07:24:45.611Z,100031.00
2022-12-31T07:27:39.341Z,100027.50
2022-12-31T07:30:19.796Z,100014.63
2022-12-31T07:33:17.250Z,100027.22
2022-12-31T07:36:01.683Z,100019.19
2022-12-31T07:38:48.695Z,100021.03
2022-12-31T07:41:18.242Z,100028.53
2022-12-31T07:44:04.179Z,100034.44
2022-12-31T07:46:31.236Z,100027.00
2022-12-31T07:48:59.003Z,100030.88
2022-12-31T07:51:26.494Z,100025.63
2022-12-31T07:53:53.143Z,100017.34
2022-12-31T07:56:19.867Z,100011.31
2022-12-31T07:59:13.858Z,100040.66
2022-12-31T08:02:33.216Z,100032.97
2022-12-31T08:04:59.916Z,100038.03
2022-12-31T08:07:38.651Z,100028.75
2022-12-31T08:10:17.361Z,100019.06
2022-12-31T08:12:47.311Z,100021.50
2022-12-31T08:15:16.989Z,100025.34
2022-12-31T08:17:44.365Z,100031.38
2022-12-31T08:20:18.387Z,100032.63
2022-12-31T08:23:03.048Z,100027.78
2022-12-31T08:25:47.707Z,100022.13
2022-12-31T08:28:38.537Z,100020.50
2022-12-31T08:31:48.073Z,100021.47
2022-12-31T08:34:26.218Z,99998.44
2022-12-31T08:37:08.326Z,100004.50
2022-12-31T08:39:41.764Z,100028.50
2022-12-31T08:42:25.204Z,100016.16
2022-12-31T08:45:08.733Z,100027.06
2022-12-31T08:48:00.051Z,100027.25
2022-12-31T08:50:27.803Z,100013.31
2022-12-31T08:52:54.933Z,100001.13
2022-12-31T08:55:24.656Z,100007.59
2022-12-31T08:58:06.300Z,100013.41
2022-12-31T09:00:36.086Z,100009.50
2022-12-31T09:03:41.447Z,100020.28
2022-12-31T09:06:22.864Z,100013.41
2022-12-31T09:09:07.832Z,99995.94
2022-12-31T09:11:55.677Z,100032.06
2022-12-31T09:14:50.480Z,100043.41
2022-12-31T09:17:17.163Z,100040.38
2022-12-31T09:19:43.819Z,100024.88
2022-12-31T09:22:11.528Z,100034.38
2022-12-31T09:24:39.594Z,100015.63
2022-12-31T09:27:15.536Z,100019.22
2022-12-31T09:30:14.838Z,100030.16
2022-12-31T09:33:09.357Z,100028.53
2022-12-31T09:35:55.239Z,100064.22
2022-12-31T09:38:35.457Z,100118.84
2022-12-31T09:41:43.221Z,100130.97
2022-12-31T09:44:50.787Z,100142.13
2022-12-31T09:47:48.253Z,100159.19
2022-12-31T09:50:21.331Z,100173.72
2022-12-31T09:53:06.402Z,100174.34
2022-12-31T09:55:48.058Z,100185.88
2022-12-31T09:59:23.130Z,100203.84
2022-12-31T10:02:01.718Z,100225.91
2022-12-31T10:05:01.707Z,100229.53
2022-12-31T10:07:30.878Z,100230.75
2022-12-31T10:10:09.929Z,100206.91
2022-12-31T10:13:07.119Z,100222.47
2022-12-31T10:15:48.639Z,100234.81
2022-12-31T10:18:43.003Z,100234.00
2022-12-31T10:21:28.303Z,100216.00
2022-12-31T10:24:20.003Z,100246.34
2022-12-31T10:26:58.603Z,100228.34
2022-12-31T10:29:36.079Z,100210.94
2022-12-31T10:32:05.542Z,100222.09
2022-12-31T10:35:00.599Z,100212.56
2022-12-31T10:37:33.061Z,100230.16
2022-12-31T10:40:19.549Z,100220.69
2022-12-31T10:47:23.587Z,100219.66
2022-12-31T10:50:30.480Z,100212.38
2022-12-31T10:57:16.220Z,100175.97
2022-12-31T10:59:49.217Z,100246.16
2022-12-31T11:02:34.361Z,100250.81
2022-12-31T11:05:38.232Z,100251.44
2022-12-31T11:08:29.279Z,100225.28
2022-12-31T11:10:55.929Z,100217.66
2022-12-31T11:13:53.748Z,100240.88
2022-12-31T11:16:50.668Z,100223.56
2022-12-31T11:19:51.166Z,100227.38
2022-12-31T11:22:24.787Z,100218.47
2022-12-31T11:25:13.371Z,100219.13
2022-12-31T11:27:46.070Z,100218.34
2022-12-31T11:30:24.699Z,100216.78
2022-12-31T11:33:25.504Z,100217.59
2022-12-31T11:36:30.265Z,100215.16
2022-12-31T11:39:17.593Z,100178.97
2022-12-31T11:46:04.621Z,100111.81
2022-12-31T11:49:07.168Z,100218.59
2022-12-31T11:51:56.728Z,100071.00
2022-12-31T11:57:51.862Z,100095.63
2022-12-31T12:00:43.995Z,100142.16
2022-12-31T12:03:46.566Z,100115.41
2022-12-31T12:14:08.914Z,100200.78
2022-12-31T12:20:23.721Z,100210.06
2022-12-31T12:22:57.589Z,100088.63
2022-12-31T12:25:34.694Z,100137.97
2022-12-31T12:28:50.509Z,100211.59
2022-12-31T12:31:36.092Z,100096.63
2022-12-31T12:34:10.355Z,100125.94
2022-12-31T12:36:49.827Z,100196.56
2022-12-31T12:39:25.318Z,100071.09
2022-12-31T12:42:09.572Z,100196.53
2022-12-31T12:49:26.405Z,100206.88
2022-12-31T12:52:40.029Z,100127.59
2022-12-31T12:55:34.876Z,100193.88
2022-12-31T12:58:18.836Z,100209.22
2022-12-31T13:01:33.041Z,100203.09
2022-12-31T13:04:34.057Z,100111.00
2022-12-31T13:14:14.122Z,100239.16
2022-12-31T13:16:45.621Z,100100.97
2022-12-31T13:19:32.821Z,100163.25
2022-12-31T13:22:25.469Z,100162.06
2022-12-31T13:28:02.985Z,100188.34
2022-12-31T13:30:40.579Z,100217.31
2022-12-31T13:33:18.507Z,100238.97
2022-12-31T13:35:47.778Z,100226.81
2022-12-31T13:38:34.840Z,100201.34
2022-12-31T13:41:08.694Z,100213.91
2022-12-31T13:43:50.798Z,100212.34
2022-12-31T13:46:26.875Z,100220.19
2022-12-31T13:48:58.333Z,100221.41
2022-12-31T13:51:54.896Z,100239.06
2022-12-31T13:54:27.533Z,100230.53
2022-12-31T13:56:57.642Z,100206.28
2022-12-31T13:59:31.675Z,100221.84
2022-12-31T14:02:07.737Z,100237.22
2022-12-31T14:04:42.679Z,100222.88
2022-12-31T14:07:32.222Z,100236.22
2022-12-31T14:10:02.283Z,100223.88
2022-12-31T14:12:52.959Z,100256.91
2022-12-31T14:15:29.636Z,100249.59
2022-12-31T14:18:21.639Z,100247.53
2022-12-31T14:21:04.042Z,100237.84
2022-12-31T14:26:33.168Z,100258.72
2022-12-31T14:29:11.955Z,100266.19
2022-12-31T14:31:41.290Z,100275.91
2022-12-31T14:34:30.125Z,100262.75
2022-12-31T14:37:07.750Z,100269.03
2022-12-31T14:39:54.982Z,100279.97
2022-12-31T14:42:40.996Z,100285.81
2022-12-31T14:45:23.135Z,100274.88
2022-12-31T14:48:02.172Z,100276.72
2022-12-31T14:50:30.755Z,100253.66
2022-12-31T14:53:00.483Z,100274.31
2022-12-31T14:55:29.240Z,100260.56
2022-12-31T15:01:17.783Z,100270.66
2022-12-31T15:03:46.393Z,100222.06
2022-12-31T15:06:40.137Z,100270.66
2022-12-31T15:09:23.428Z,100242.75
2022-12-31T15:12:26.058Z,100263.16
2022-12-31T15:15:23.290Z,100265.81
2022-12-31T15:17:52.139Z,100266.41
2022-12-31T15:20:56.735Z,100277.34
2022-12-31T15:23:27.510Z,100281.22
2022-12-31T15:26:35.380Z,100291.75
2022-12-31T15:29:08.199Z,100287.91
2022-12-31T15:31:36.768Z,100294.59
2022-12-31T15:34:06.336Z,100294.78
2022-12-31T15:36:39.219Z,100300.00
2022-12-31T15:39:11.793Z,100292.34
2022-12-31T15:44:51.973Z,100300.03
2022-12-31T15:47:29.620Z,100305.91
2022-12-31T15:50:00.743Z,100303.69
2022-12-31T15:52:45.136Z,100311.56
2022-12-31T15:55:41.764Z,100312.38
2022-12-31T15:58:15.845Z,100318.03
2022-12-31T16:01:02.168Z,100317.25
2022-12-31T16:03:31.931Z,100312.38
2022-12-31T16:06:12.150Z,100312.75
2022-12-31T16:08:40.956Z,100316.38
2022-12-31T16:11:09.210Z,100321.47
2022-12-31T16:13:41.389Z,100321.66
2022-12-31T16:16:18.961Z,100309.50
2022-12-31T16:18:46.435Z,100292.13
2022-12-31T16:21:32.961Z,100303.44
2022-12-31T16:24:02.851Z,100299.22
2022-12-31T16:27:09.269Z,100327.53
2022-12-31T16:29:37.711Z,100316.19
2022-12-31T16:32:04.680Z,100326.53
2022-12-31T16:34:37.011Z,100339.28
2022-12-31T16:37:07.445Z,100321.44
2022-12-31T16:39:36.703Z,100312.34
2022-12-31T16:42:09.551Z,100320.03
2022-12-31T16:44:36.249Z,100320.66
2022-12-31T16:47:04.222Z,100314.00
2022-12-31T16:49:41.519Z,100317.25
2022-12-31T16:52:29.331Z,100333.22
2022-12-31T16:54:57.376Z,100322.88
2022-12-31T16:57:27.429Z,100314.16
2022-12-31T17:00:29.977Z,100315.53
2022-12-31T17:03:20.215Z,100286.63
2022-12-31T17:06:12.586Z,100318.78
2022-12-31T17:09:02.754Z,100315.13
2022-12-31T17:11:56.220Z,100303.41
2022-12-31T17:14:37.228Z,100249.38
2022-12-31T17:17:09.144Z,100239.22
2022-12-31T17:19:47.387Z,100283.94
2022-12-31T17:22:29.810Z,100283.53
2022-12-31T17:25:09.243Z,100268.53
2022-12-31T17:27:39.801Z,100266.91
2022-12-31T17:30:37.081Z,100281.47
2022-12-31T17:33:12.809Z,100269.84
2022-12-31T17:35:43.687Z,100285.50
2022-12-31T17:38:36.748Z,100272.34
2022-12-31T17:41:06.182Z,100282.06
2022-12-31T17:43:38.188Z,100280.66
2022-12-31T17:46:16.492Z,100278.16
2022-12-31T17:48:46.210Z,100258.28
2022-12-31T17:51:12.896Z,100258.28
2022-12-31T17:53:39.660Z,100244.72
2022-12-31T17:56:08.244Z,100256.28
2022-12-31T17:58:43.551Z,100261.53
2022-12-31T18:01:13.727Z,100267.00
2022-12-31T18:03:40.854Z,100234.84
2022-12-31T18:06:16.072Z,100240.84
2022-12-31T18:08:45.881Z,100250.59
2022-12-31T18:11:17.615Z,100236.63
2022-12-31T18:13:44.684Z,100246.47
2022-12-31T18:16:11.778Z,100250.13
2022-12-31T18:18:41.567Z,100271.56
2022-12-31T18:21:16.403Z,100268.34
2022-12-31T18:23:48.614Z,100261.50
2022-12-31T18:26:23.682Z,100246.47
2022-12-31T18:28:50.533Z,100255.16
2022-12-31T18:31:28.797Z,100254.31
2022-12-31T18:33:58.082Z,100261.63
2022-12-31T18:36:25.932Z,100276.81
2022-12-31T18:38:53.416Z,100262.16
2022-12-31T18:41:23.403Z,100264.56
2022-12-31T18:43:51.015Z,100290.44
2022-12-31T18:46:21.922Z,100273.28
2022-12-31T18:48:49.106Z,100266.75
2022-12-31T18:51:23.996Z,100265.94
2022-12-31T18:53:53.255Z,100252.59
2022-12-31T18:56:21.477Z,100270.41
2022-12-31T18:58:48.726Z,100259.31
2022-12-31T19:01:28.299Z,100273.31
2022-12-31T19:04:00.670Z,100264.97
2022-12-31T19:06:28.057Z,100293.84
2022-12-31T19:08:55.333Z,100248.22
2022-12-31T19:11:22.798Z,100245.19
2022-12-31T19:13:50.029Z,100289.22
2022-12-31T19:16:17.989Z,100277.84
2022-12-31T19:18:45.396Z,100244.00
2022-12-31T19:21:20.851Z,100264.84
2022-12-31T19:23:47.601Z,100251.88
2022-12-31T19:26:19.382Z,100255.50
2022-12-31T19:28:46.689Z,100262.81
2022-12-31T19:31:14.367Z,100272.50
2022-12-31T19:33:52.800Z,100284.13
2022-12-31T19:39:08.784Z,100222.44
2022-12-31T19:41:40.377Z,100219.31
2022-12-31T19:44:19.310Z,100267.31
2022-12-31T19:46:47.821Z,100277.78
2022-12-31T19:49:31.613Z,100214.38
2022-12-31T19:51:58.590Z,100222.13
2022-12-31T19:54:25.315Z,100225.59
2022-12-31T19:57:08.328Z,100243.63
2022-12-31T19:59:50.711Z,100265.09
2022-12-31T20:02:17.622Z,100263.25
2022-12-31T20:04:47.758Z,100243.34
2022-12-31T20:07:45.790Z,100312.88
2022-12-31T20:10:30.500Z,100272.25
2022-12-31T20:15:39.542Z,100323.28
2022-12-31T20:21:25.952Z,100279.13
2022-12-31T20:24:28.472Z,100276.91
2022-12-31T20:27:20.444Z,100286.38
2022-12-31T20:29:47.263Z,100306.41
2022-12-31T20:32:14.172Z,100306.41
2022-12-31T20:34:40.794Z,100320.72
2022-12-31T20:37:07.403Z,100325.63
2022-12-31T20:39:34.148Z,100332.47
2022-12-31T20:42:00.816Z,100349.91
2022-12-31T20:44:27.455Z,100339.13
2022-12-31T20:46:54.467Z,100328.25
2022-12-31T20:49:37.541Z,100345.03
2022-12-31T20:52:07.847Z,100335.09
2022-12-31T20:54:47.619Z,100337.44
2022-12-31T21:06:37.030Z,100289.44
2022-12-31T21:09:07.269Z,100336.78
2022-12-31T21:12:01.704Z,100356.81
2022-12-31T21:14:32.299Z,100347.81
2022-12-31T21:17:04.887Z,100304.44
2022-12-31T21:19:46.236Z,100272.50
2022-12-31T21:22:19.469Z,100259.13
2022-12-31T21:24:47.671Z,100291.47
2022-12-31T21:27:15.830Z,100348.31
2022-12-31T21:30:17.723Z,100335.66
2022-12-31T21:32:42.613Z,100319.31
2022-12-31T21:38:27.719Z,100306.00
2022-12-31T21:41:36.406Z,100332.56
2022-12-31T21:44:40.844Z,100299.78
2022-12-31T21:48:07.327Z,100243.78
2022-12-31T21:57:01.350Z,100274.88
2022-12-31T22:00:39.856Z,100372.41
2022-12-31T22:03:23.836Z,100320.50
2022-12-31T22:06:41.397Z,100362.78
2022-12-31T22:17:58.822Z,100330.47
2022-12-31T22:20:27.894Z,100357.75
2022-12-31T22:23:16.185Z,100295.22
2022-12-31T22:25:51.926Z,100319.91
2022-12-31T22:31:05.701Z,100401.75
2022-12-31T22:33:32.518Z,100396.09
2022-12-31T22:36:08.309Z,100404.63
2022-12-31T22:38:34.978Z,100415.91
2022-12-31T22:41:13.593Z,100416.72
2022-12-31T22:43:43.441Z,100439.38
2022-12-31T22:46:13.481Z,100410.34
2022-12-31T22:48:40.730Z,100420.47
2022-12-31T22:51:09.114Z,100426.53
2022-12-31T22:53:42.939Z,100398.41
2022-12-31T22:56:14.022Z,100379.00
2022-12-31T22:59:17.667Z,100442.13
2022-12-31T23:01:44.986Z,100340.88
2022-12-31T23:05:14.790Z,100398.34
2022-12-31T23:08:09.451Z,100346.88
2022-12-31T23:11:13.866Z,100438.53
2022-12-31T23:14:05.549Z,100399.97
2022-12-31T23:17:29.721Z,100391.00
2022-12-31T23:23:52.477Z,100453.13
2022-12-31T23:28:45.060Z,100441.38
2022-12-31T23:30:43.917Z,100402.44
2022-12-31T23:34:24.535Z,100420.19
2022-12-31T23:37:13.408Z,100447.72
2022-12-31T23:40:20.836Z,100396.47
2022-12-31T23:43:24.691Z,100441.66
2022-12-31T23:46:27.705Z,100386.59
2022-12-31T23:49:25.087Z,100342.44
2022-12-31T23:52:02.756Z,100404.53
2022-12-31T23:54:29.646Z,100364.69
2022-12-31T23:57:02.068Z,100381.72
2022-12-31T23:59:45.784Z,100348.66
